Time;durP1;ratioP1;P1;durP2;ratioP2;P2;SDS_P1;SDS_P2;PMS_P1;PMS_P2;Temp;Humidity;BMP_temperature;BMP_pressure;BME280_temperature;BME280_humidity;BME280_pressure;Samples;Min_cycle;Max_cycle;Signal;HPM_P1;HPM_P2
2022/09/16 00:02:08;;;;;;;7.30;1.80;;;14.80;93.20;;;;;;4957614;28;20047;-59
2022/09/16 00:04:35;;;;;;;6.50;1.70;;;14.80;93.00;;;;;;4957369;28;20496;-59
2022/09/16 00:07:03;;;;;;;5.88;1.35;;;14.80;92.80;;;;;;4957807;29;20035;-58
2022/09/16 00:09:29;;;;;;;3.67;1.60;;;14.80;92.60;;;;;;4956152;28;20126;-59
2022/09/16 00:11:56;;;;;;;3.45;1.65;;;14.80;92.80;;;;;;4957202;29;20051;-57
2022/09/16 00:14:23;;;;;;;8.00;1.65;;;14.80;92.50;;;;;;4956288;29;20122;-56
2022/09/16 00:16:49;;;;;;;7.35;2.08;;;14.80;92.50;;;;;;4957668;28;20142;-54
2022/09/16 00:19:16;;;;;;;4.65;1.58;;;14.80;92.80;;;;;;4955441;29;20047;-58
2022/09/16 00:21:43;;;;;;;4.97;1.80;;;14.80;92.60;;;;;;4956591;28;20043;-57
2022/09/16 00:24:12;;;;;;;6.93;2.22;;;14.80;92.50;;;;;;4955390;28;20130;-58
2022/09/16 00:26:39;;;;;;;4.15;1.52;;;14.80;92.50;;;;;;4956692;28;20097;-57
2022/09/16 00:29:06;;;;;;;8.10;1.73;;;14.80;92.70;;;;;;4955268;28;20039;-59
2022/09/16 00:31:32;;;;;;;6.25;1.77;;;14.80;92.60;;;;;;4955314;28;20110;-54
2022/09/16 00:33:59;;;;;;;6.72;1.90;;;14.80;92.70;;;;;;4956847;28;20050;-57
2022/09/16 00:36:26;;;;;;;3.55;1.52;;;14.80;92.90;;;;;;4956740;28;20047;-56
2022/09/16 00:38:53;;;;;;;4.57;1.38;;;14.80;92.90;;;;;;4956844;29;20047;-56
2022/09/16 00:41:20;;;;;;;4.70;1.83;;;14.80;92.70;;;;;;4955444;29;20039;-55
2022/09/16 00:43:47;;;;;;;7.10;1.95;;;14.80;92.60;;;;;;4955526;28;20039;-59
2022/09/16 00:46:14;;;;;;;3.90;1.60;;;14.80;92.60;;;;;;4956477;28;20046;-58
2022/09/16 00:48:40;;;;;;;7.68;1.45;;;14.80;92.90;;;;;;4956357;28;20104;-59
2022/09/16 00:51:08;;;;;;;4.15;1.30;;;14.80;92.70;;;;;;4956568;29;20039;-57
2022/09/16 00:53:34;;;;;;;4.78;1.58;;;14.70;92.80;;;;;;4955418;28;20094;-58
2022/09/16 00:56:08;;;;;;;4.15;1.35;;;14.60;92.80;;;;;;4955404;29;20046;-56
2022/09/16 00:58:35;;;;;;;5.80;1.40;;;14.60;92.90;;;;;;4955120;28;20118;-56
2022/09/16 01:01:01;;;;;;;4.18;1.30;;;14.70;93.10;;;;;;4954026;28;20383;-58
2022/09/16 01:03:28;;;;;;;3.00;1.02;;;14.60;93.00;;;;;;4956046;28;20471;-58
2022/09/16 01:05:55;;;;;;;4.38;1.27;;;14.60;93.00;;;;;;4953552;28;20082;-58
2022/09/16 01:08:21;;;;;;;4.72;1.23;;;14.60;93.10;;;;;;4956022;28;20042;-59
2022/09/16 01:10:48;;;;;;;3.28;1.20;;;14.50;93.20;;;;;;4953213;28;20051;-56
2022/09/16 01:13:15;;;;;;;5.97;1.60;;;14.50;93.40;;;;;;4942811;28;20125;-55
2022/09/16 01:15:41;;;;;;;4.15;1.35;;;14.40;93.40;;;;;;4955384;28;20557;-59
2022/09/16 01:18:08;;;;;;;7.43;1.70;;;14.40;93.50;;;;;;4955589;28;20039;-58
2022/09/16 01:20:35;;;;;;;4.25;1.30;;;14.40;93.60;;;;;;4955516;28;20039;-56
2022/09/16 01:23:02;;;;;;;7.43;1.45;;;14.30;93.70;;;;;;4954027;28;20118;-58
2022/09/16 01:25:28;;;;;;;4.03;1.40;;;14.40;93.70;;;;;;4956072;28;20539;-57
2022/09/16 01:27:55;;;;;;;5.07;1.23;;;14.40;93.70;;;;;;4954269;29;20485;-56
2022/09/16 01:30:22;;;;;;;5.60;1.63;;;14.30;93.80;;;;;;4954707;28;20039;-56
2022/09/16 01:32:48;;;;;;;6.47;1.52;;;14.30;93.80;;;;;;4954038;28;20570;-58
2022/09/16 01:35:15;;;;;;;3.63;1.35;;;14.30;93.80;;;;;;4955858;28;20075;-57
2022/09/16 01:37:42;;;;;;;2.42;1.20;;;14.30;93.90;;;;;;4955702;28;20043;-57
2022/09/16 01:40:09;;;;;;;5.03;1.20;;;14.30;94.00;;;;;;4954503;29;20094;-55
2022/09/16 01:42:35;;;;;;;5.15;1.30;;;14.30;94.00;;;;;;4954287;28;20048;-58
2022/09/16 01:45:02;;;;;;;3.30;1.10;;;14.30;93.90;;;;;;4954118;28;20035;-58
2022/09/16 01:47:29;;;;;;;4.68;1.35;;;14.30;94.10;;;;;;4954725;28;20134;-53
2022/09/16 01:49:55;;;;;;;3.55;1.30;;;14.20;94.10;;;;;;4939810;29;20426;-58
2022/09/16 01:52:22;;;;;;;3.35;1.25;;;14.20;94.20;;;;;;4955935;28;20054;-59
2022/09/16 01:54:49;;;;;;;4.32;1.25;;;14.10;94.20;;;;;;4955250;28;20439;-59
2022/09/16 01:57:15;;;;;;;4.55;1.33;;;14.10;94.40;;;;;;4955881;28;20053;-59
2022/09/16 01:59:42;;;;;;;5.63;1.30;;;14.00;94.40;;;;;;4952346;28;20486;-61
2022/09/16 02:02:09;;;;;;;4.32;1.50;;;14.00;94.60;;;;;;4953464;29;20463;-58
2022/09/16 02:04:36;;;;;;;6.20;1.52;;;14.00;94.60;;;;;;4940933;29;20183;-56
2022/09/16 02:07:02;;;;;;;5.43;1.30;;;14.00;94.60;;;;;;4955105;29;20069;-58
2022/09/16 02:09:29;;;;;;;3.78;1.27;;;14.00;94.70;;;;;;4954549;28;20443;-59
2022/09/16 02:11:56;;;;;;;4.93;1.30;;;13.90;94.80;;;;;;4953041;28;20051;-58
2022/09/16 02:14:22;;;;;;;5.50;1.08;;;13.90;95.00;;;;;;4954980;28;20054;-57
2022/09/16 02:16:49;;;;;;;3.85;1.25;;;13.80;95.00;;;;;;4953948;28;20043;-56
2022/09/16 02:19:16;;;;;;;3.28;1.10;;;13.80;95.00;;;;;;4959247;28;20035;-56
2022/09/16 02:21:42;;;;;;;3.03;1.48;;;13.80;95.10;;;;;;4956943;28;20039;-57
2022/09/16 02:24:11;;;;;;;4.75;1.30;;;13.70;95.20;;;;;;4959674;28;20529;-59
2022/09/16 02:26:38;;;;;;;2.80;1.08;;;13.60;95.50;;;;;;4959350;28;20152;-56
2022/09/16 02:29:05;;;;;;;8.00;1.45;;;13.60;95.50;;;;;;4959007;28;20047;-58
2022/09/16 02:31:31;;;;;;;3.90;1.30;;;13.60;95.60;;;;;;4959039;28;20055;-54
2022/09/16 02:33:58;;;;;;;4.32;1.40;;;13.60;95.70;;;;;;4958993;28;20053;-57
2022/09/16 02:36:25;;;;;;;2.85;0.98;;;13.60;95.70;;;;;;4957297;28;20514;-56
2022/09/16 02:38:52;;;;;;;4.47;1.27;;;13.60;95.70;;;;;;4957758;28;20094;-55
2022/09/16 02:41:19;;;;;;;3.97;1.20;;;13.60;95.80;;;;;;4958745;29;20491;-56
2022/09/16 02:43:45;;;;;;;5.40;1.40;;;13.50;96.00;;;;;;4958669;28;20054;-57
2022/09/16 02:46:12;;;;;;;2.63;1.17;;;13.50;95.90;;;;;;4958980;28;20043;-58
2022/09/16 02:48:39;;;;;;;4.82;1.13;;;13.50;96.00;;;;;;4959133;29;20047;-58
2022/09/16 02:51:06;;;;;;;3.78;1.45;;;13.50;96.00;;;;;;4958438;28;20045;-54
2022/09/16 02:53:34;;;;;;;7.32;1.58;;;13.40;96.10;;;;;;4958124;28;20044;-57
2022/09/16 02:56:00;;;;;;;5.18;1.40;;;13.40;96.20;;;;;;4958602;29;20058;-55
2022/09/16 02:58:27;;;;;;;6.90;1.40;;;13.40;96.30;;;;;;4956033;28;20036;-57
2022/09/16 03:00:54;;;;;;;3.80;1.40;;;13.40;96.30;;;;;;4956620;28;20051;-58
2022/09/16 03:03:21;;;;;;;5.22;1.30;;;13.30;96.40;;;;;;4956682;28;20043;-58
2022/09/16 03:05:48;;;;;;;5.35;1.48;;;13.40;96.40;;;;;;4956886;29;20043;-58
2022/09/16 03:08:14;;;;;;;3.88;1.25;;;13.40;96.50;;;;;;4957199;29;20094;-61
2022/09/16 03:10:41;;;;;;;5.28;1.45;;;13.40;96.50;;;;;;4954652;29;20058;-56
2022/09/16 03:13:08;;;;;;;2.47;1.20;;;13.40;96.50;;;;;;4956467;28;20102;-59
2022/09/16 03:15:35;;;;;;;6.38;1.50;;;13.40;96.60;;;;;;4957704;28;20065;-59
2022/09/16 03:18:01;;;;;;;3.72;1.50;;;13.40;96.70;;;;;;4958055;29;20094;-57
2022/09/16 03:20:28;;;;;;;5.53;1.20;;;13.40;96.70;;;;;;4957900;29;20043;-59
2022/09/16 03:22:55;;;;;;;3.85;1.55;;;13.40;96.80;;;;;;4957503;28;20047;-57
2022/09/16 03:25:21;;;;;;;6.50;1.42;;;13.40;96.90;;;;;;4957536;28;20051;-59
2022/09/16 03:27:49;;;;;;;5.57;1.30;;;13.40;97.00;;;;;;4955134;28;20079;-58
2022/09/16 03:30:16;;;;;;;5.95;1.55;;;13.40;97.00;;;;;;4955837;28;20035;-59
2022/09/16 03:32:42;;;;;;;5.97;1.33;;;13.40;97.00;;;;;;4958336;28;20039;-58
2022/09/16 03:35:09;;;;;;;5.50;1.20;;;13.40;97.20;;;;;;4957551;28;20046;-57
2022/09/16 03:37:36;;;;;;;3.83;1.48;;;13.40;97.30;;;;;;4957176;29;20043;-57
2022/09/16 03:40:03;;;;;;;5.35;1.35;;;13.40;97.30;;;;;;4957837;29;20051;-58
2022/09/16 03:42:29;;;;;;;3.83;1.20;;;13.40;97.30;;;;;;4957238;29;20043;-58
2022/09/16 03:44:56;;;;;;;4.55;1.27;;;13.40;97.50;;;;;;4938812;29;20039;-55
2022/09/16 03:47:23;;;;;;;4.05;1.73;;;13.40;97.50;;;;;;4950878;29;20043;-58
2022/09/16 03:49:50;;;;;;;4.10;1.10;;;13.40;97.50;;;;;;4956301;29;20044;-58
2022/09/16 03:52:18;;;;;;;3.53;1.10;;;13.40;97.60;;;;;;4956779;28;20047;-55
2022/09/16 03:54:45;;;;;;;4.45;1.42;;;13.40;97.70;;;;;;4955669;29;20465;-58
2022/09/16 03:57:12;;;;;;;5.70;1.55;;;13.40;97.70;;;;;;4958054;28;20114;-58
2022/09/16 03:59:38;;;;;;;4.70;1.70;;;13.40;97.70;;;;;;4955982;28;20043;-57
2022/09/16 04:02:05;;;;;;;6.00;1.20;;;13.40;97.80;;;;;;4955398;29;20039;-57
2022/09/16 04:04:32;;;;;;;4.45;1.27;;;13.30;97.90;;;;;;4955279;28;20122;-57
2022/09/16 04:06:58;;;;;;;4.00;1.10;;;13.30;97.90;;;;;;4956605;29;20067;-57
2022/09/16 04:09:25;;;;;;;4.70;1.30;;;13.30;98.00;;;;;;4953879;29;20037;-58
2022/09/16 04:11:52;;;;;;;5.65;1.70;;;13.30;98.10;;;;;;4954975;29;20134;-57
2022/09/16 04:14:19;;;;;;;5.40;1.60;;;13.30;98.10;;;;;;4950984;28;20043;-59
2022/09/16 04:16:45;;;;;;;4.72;1.50;;;13.20;98.00;;;;;;4957706;28;20098;-58
2022/09/16 04:19:12;;;;;;;6.30;1.35;;;13.20;98.20;;;;;;4956417;28;20478;-54
2022/09/16 04:21:39;;;;;;;4.53;1.20;;;13.20;98.20;;;;;;4956378;28;20094;-58
2022/09/16 04:24:05;;;;;;;3.22;1.20;;;13.20;98.20;;;;;;4956188;28;20066;-58
2022/09/16 04:26:38;;;;;;;6.38;1.40;;;13.10;98.10;;;;;;4956602;28;20094;-57
2022/09/16 04:29:05;;;;;;;6.47;1.88;;;13.10;98.20;;;;;;4953652;29;20502;-57
2022/09/16 04:31:32;;;;;;;6.75;1.83;;;13.10;98.30;;;;;;4953605;29;20109;-59
2022/09/16 04:33:58;;;;;;;5.55;1.52;;;13.00;98.30;;;;;;4957253;29;20044;-59
2022/09/16 04:36:25;;;;;;;5.13;1.55;;;13.00;98.40;;;;;;4956864;29;20078;-59
2022/09/16 04:38:52;;;;;;;6.50;1.58;;;13.00;98.40;;;;;;4954483;29;20402;-57
2022/09/16 04:41:18;;;;;;;4.90;1.50;;;13.00;98.50;;;;;;4956151;28;20082;-57
2022/09/16 04:43:45;;;;;;;7.13;1.85;;;12.90;98.50;;;;;;4955233;28;20483;-57
2022/09/16 04:46:12;;;;;;;7.47;1.90;;;12.90;98.60;;;;;;4955751;28;20055;-59
2022/09/16 04:48:39;;;;;;;4.07;1.42;;;12.90;98.60;;;;;;4956432;28;20039;-56
2022/09/16 04:51:05;;;;;;;7.03;1.73;;;12.90;98.70;;;;;;4954250;28;20039;-57
2022/09/16 04:53:32;;;;;;;3.33;1.60;;;12.80;98.80;;;;;;4952542;28;20094;-58
2022/09/16 04:55:59;;;;;;;6.43;1.65;;;12.80;98.90;;;;;;4955217;29;20039;-58
2022/09/16 04:58:25;;;;;;;4.05;1.40;;;12.80;98.90;;;;;;4955802;28;20389;-57
2022/09/16 05:00:52;;;;;;;7.25;2.13;;;12.80;99.00;;;;;;4953783;28;20086;-57
2022/09/16 05:03:19;;;;;;;9.27;1.80;;;12.70;98.90;;;;;;4952827;28;20478;-58
2022/09/16 05:05:46;;;;;;;8.18;1.60;;;12.80;99.10;;;;;;4954092;28;20039;-57
2022/09/16 05:08:12;;;;;;;5.13;1.40;;;12.70;99.10;;;;;;4954091;28;20042;-59
2022/09/16 05:10:39;;;;;;;5.78;1.45;;;12.70;99.10;;;;;;4955565;28;20383;-55
2022/09/16 05:13:06;;;;;;;3.72;1.65;;;12.80;99.20;;;;;;4954414;28;20047;-56
2022/09/16 05:15:33;;;;;;;5.47;1.85;;;12.80;99.30;;;;;;4954041;28;20051;-56
2022/09/16 05:17:59;;;;;;;7.75;1.58;;;12.70;99.30;;;;;;4956010;29;20043;-57
2022/09/16 05:20:26;;;;;;;5.07;1.48;;;12.70;99.20;;;;;;4954933;28;20067;-54
2022/09/16 05:22:53;;;;;;;3.80;1.73;;;12.70;99.20;;;;;;4954193;29;20388;-56
2022/09/16 05:25:20;;;;;;;6.50;1.80;;;12.70;99.20;;;;;;4954239;29;20039;-56
2022/09/16 05:27:47;;;;;;;4.43;1.63;;;12.60;99.50;;;;;;4951870;28;20047;-58
2022/09/16 05:30:16;;;;;;;4.75;1.70;;;12.60;99.50;;;;;;4952441;28;20047;-57
2022/09/16 05:32:42;;;;;;;4.43;1.60;;;12.60;99.50;;;;;;4955829;28;20053;-51
2022/09/16 05:35:09;;;;;;;5.80;1.80;;;12.50;99.60;;;;;;4955587;28;20051;-58
2022/09/16 05:37:36;;;;;;;6.25;1.90;;;12.50;99.70;;;;;;4956050;28;20050;-59
2022/09/16 05:40:02;;;;;;;6.72;1.70;;;12.50;99.70;;;;;;4953507;29;20098;-56
2022/09/16 05:42:29;;;;;;;4.15;1.70;;;12.40;99.90;;;;;;4952320;29;20118;-56
2022/09/16 05:44:56;;;;;;;6.35;1.73;;;12.40;99.90;;;;;;4954214;29;20039;-56
2022/09/16 05:47:23;;;;;;;3.72;1.85;;;12.40;99.90;;;;;;4953976;28;20045;-55
2022/09/16 05:49:53;;;;;;;3.25;1.67;;;12.40;99.90;;;;;;4954029;28;20463;-59
2022/09/16 05:52:20;;;;;;;5.00;1.63;;;12.40;99.90;;;;;;4954474;28;20055;-58
2022/09/16 05:54:47;;;;;;;4.65;1.98;;;12.40;99.90;;;;;;4954288;28;20102;-55
2022/09/16 05:57:14;;;;;;;8.13;1.88;;;12.40;99.90;;;;;;4952391;28;20040;-56
2022/09/16 05:59:40;;;;;;;6.22;1.70;;;12.40;99.90;;;;;;4953578;28;20043;-57
2022/09/16 06:02:07;;;;;;;6.75;1.70;;;12.30;99.90;;;;;;4954585;28;20487;-58
2022/09/16 06:04:34;;;;;;;6.03;1.83;;;12.40;99.90;;;;;;4955302;28;20070;-58
2022/09/16 06:07:02;;;;;;;4.90;1.85;;;12.40;99.90;;;;;;4953738;29;20047;-56
2022/09/16 06:09:29;;;;;;;6.13;2.00;;;12.40;99.90;;;;;;4955375;29;20130;-58
2022/09/16 06:11:55;;;;;;;5.53;1.60;;;12.40;99.90;;;;;;4955052;29;20059;-58
2022/09/16 06:14:27;;;;;;;5.90;1.63;;;12.40;99.90;;;;;;4955173;29;20118;-57
2022/09/16 06:16:54;;;;;;;5.13;1.75;;;12.50;99.90;;;;;;4955027;29;20609;-57
2022/09/16 06:19:21;;;;;;;7.85;1.85;;;12.60;99.90;;;;;;4954994;29;20059;-56
2022/09/16 06:21:48;;;;;;;6.93;1.80;;;12.50;99.90;;;;;;4954371;29;20130;-56
2022/09/16 06:24:14;;;;;;;7.25;1.80;;;12.50;99.90;;;;;;4955055;28;20040;-57
2022/09/16 06:26:41;;;;;;;6.18;1.73;;;12.50;99.90;;;;;;4955407;28;20039;-58
2022/09/16 06:29:08;;;;;;;5.22;2.03;;;12.50;99.90;;;;;;4955170;28;20478;-58
2022/09/16 06:31:35;;;;;;;5.55;1.50;;;12.50;99.90;;;;;;4955257;28;20039;-59
2022/09/16 06:34:01;;;;;;;6.72;2.33;;;12.50;99.90;;;;;;4954798;29;20141;-55
2022/09/16 06:36:28;;;;;;;6.13;1.88;;;12.50;99.90;;;;;;4955597;28;20035;-55
2022/09/16 06:38:55;;;;;;;4.55;2.00;;;12.50;99.90;;;;;;4955481;28;20494;-56
2022/09/16 06:41:21;;;;;;;5.90;1.80;;;12.50;99.90;;;;;;4954900;28;20043;-56
2022/09/16 06:43:50;;;;;;;10.70;2.20;;;12.50;99.90;;;;;;4954977;28;20039;-57
2022/09/16 06:46:16;;;;;;;8.52;2.50;;;12.50;99.90;;;;;;4950914;28;20142;-58
2022/09/16 06:48:43;;;;;;;5.60;1.90;;;12.50;99.90;;;;;;4953666;28;20098;-57
2022/09/16 06:51:11;;;;;;;8.20;1.83;;;12.50;99.90;;;;;;4950324;28;20043;-57
2022/09/16 06:53:38;;;;;;;8.50;2.30;;;12.50;99.90;;;;;;4952546;28;20211;-58
2022/09/16 06:56:05;;;;;;;6.50;2.22;;;12.50;99.90;;;;;;4954521;28;20055;-59
2022/09/16 06:58:31;;;;;;;8.00;1.88;;;12.60;99.90;;;;;;4952776;28;20047;-57
2022/09/16 07:00:58;;;;;;;5.70;1.90;;;12.60;99.90;;;;;;4949628;29;20043;-56
2022/09/16 07:03:25;;;;;;;16.05;2.28;;;12.60;99.90;;;;;;4956679;28;20039;-56
2022/09/16 07:05:52;;;;;;;5.47;1.98;;;12.60;99.90;;;;;;4957777;29;20053;-57
2022/09/16 07:08:18;;;;;;;5.72;2.15;;;12.60;99.90;;;;;;4956095;29;20407;-57
2022/09/16 07:10:45;;;;;;;6.28;2.20;;;12.60;99.90;;;;;;4956970;29;20101;-54
2022/09/16 07:13:12;;;;;;;7.05;1.75;;;12.60;99.90;;;;;;4947322;28;20483;-55
2022/09/16 07:15:38;;;;;;;6.63;2.20;;;12.70;99.90;;;;;;4956797;28;20423;-57
2022/09/16 07:18:26;;;;;;;9.85;2.55;;;12.80;99.90;;;;;;4953201;28;20063;-56
2022/09/16 07:20:53;;;;;;;12.43;2.58;;;12.90;99.90;;;;;;4949249;28;20039;-57
2022/09/16 07:23:19;;;;;;;6.38;2.40;;;13.00;99.90;;;;;;4955812;28;20533;-55
2022/09/16 07:25:46;;;;;;;7.35;2.30;;;13.10;99.90;;;;;;4955978;28;20119;-55
2022/09/16 07:28:13;;;;;;;10.27;2.63;;;13.10;99.90;;;;;;4955316;28;20043;-56
2022/09/16 07:30:39;;;;;;;7.40;2.45;;;13.20;99.90;;;;;;4956017;29;20043;-56
2022/09/16 07:33:06;;;;;;;6.57;2.35;;;13.30;99.90;;;;;;4953401;29;20054;-55
2022/09/16 07:35:33;;;;;;;4.82;2.08;;;13.40;99.90;;;;;;4956633;29;20481;-57
2022/09/16 07:38:00;;;;;;;9.15;2.45;;;13.40;99.80;;;;;;4956892;28;20051;-54
2022/09/16 07:40:27;;;;;;;8.57;2.78;;;13.50;99.90;;;;;;4955891;28;20070;-56
2022/09/16 07:42:55;;;;;;;7.50;2.50;;;13.60;99.50;;;;;;4953667;28;20043;-55
2022/09/16 07:45:22;;;;;;;9.52;2.10;;;13.70;99.60;;;;;;4955913;28;20043;-54
2022/09/16 07:47:49;;;;;;;5.90;1.92;;;13.70;99.60;;;;;;4953833;29;20054;-54
2022/09/16 07:50:15;;;;;;;10.20;2.70;;;13.80;99.20;;;;;;4954793;28;20448;-58
2022/09/16 07:52:42;;;;;;;8.60;2.60;;;13.90;99.20;;;;;;4957089;28;20106;-55
2022/09/16 07:55:16;;;;;;;8.25;2.80;;;13.90;99.20;;;;;;4954305;28;20078;-55
2022/09/16 07:57:43;;;;;;;5.85;2.30;;;14.00;99.00;;;;;;4955563;28;20098;-57
2022/09/16 08:00:10;;;;;;;10.27;3.20;;;14.00;98.70;;;;;;4955055;28;20047;-57
2022/09/16 08:02:36;;;;;;;8.57;2.50;;;14.10;98.60;;;;;;4953349;29;20058;-56
2022/09/16 08:05:03;;;;;;;10.80;2.42;;;14.20;98.80;;;;;;4948891;29;20043;-57
2022/09/16 08:07:30;;;;;;;7.70;2.30;;;14.30;98.70;;;;;;4953567;28;20071;-55
2022/09/16 08:09:57;;;;;;;4.75;2.33;;;14.30;98.30;;;;;;4953831;28;20039;-57
2022/09/16 08:12:24;;;;;;;8.07;2.53;;;14.40;98.40;;;;;;4954369;28;20059;-58
2022/09/16 08:14:51;;;;;;;6.35;2.28;;;14.40;97.90;;;;;;4957243;28;20090;-58
2022/09/16 08:17:17;;;;;;;6.70;1.80;;;14.30;97.40;;;;;;4955685;28;20131;-56
2022/09/16 08:19:44;;;;;;;8.45;1.90;;;14.20;96.80;;;;;;4952152;28;20077;-57
2022/09/16 08:22:11;;;;;;;6.38;2.10;;;14.10;97.00;;;;;;4953544;28;20053;-59
2022/09/16 08:24:40;;;;;;;7.50;1.55;;;14.10;97.30;;;;;;4945235;28;20077;-56
2022/09/16 08:27:07;;;;;;;8.85;1.95;;;14.00;96.70;;;;;;4954441;28;20498;-57
2022/09/16 08:29:33;;;;;;;4.63;1.45;;;14.00;97.00;;;;;;4953620;28;20086;-58
2022/09/16 08:32:00;;;;;;;5.18;1.92;;;14.00;97.10;;;;;;4953428;28;20422;-58
2022/09/16 08:34:27;;;;;;;5.68;1.30;;;14.00;96.90;;;;;;4952950;28;20039;-54
2022/09/16 08:36:54;;;;;;;3.42;1.30;;;14.20;96.80;;;;;;4956067;28;20483;-55
2022/09/16 08:39:20;;;;;;;3.28;1.58;;;14.30;96.40;;;;;;4955177;28;20094;-58
2022/09/16 08:41:47;;;;;;;4.10;1.50;;;14.20;95.90;;;;;;4952841;28;20043;-59
2022/09/16 08:44:14;;;;;;;7.03;1.40;;;14.20;96.10;;;;;;4955665;28;20039;-58
2022/09/16 08:46:40;;;;;;;4.75;1.50;;;14.20;95.70;;;;;;4955674;28;20043;-57
2022/09/16 08:49:08;;;;;;;3.05;1.20;;;14.20;95.80;;;;;;4948942;28;20063;-59
2022/09/16 08:51:34;;;;;;;4.60;1.13;;;14.10;95.50;;;;;;4954617;28;20505;-56
2022/09/16 08:54:01;;;;;;;4.85;1.40;;;14.10;95.60;;;;;;4956413;28;20054;-58
2022/09/16 08:56:28;;;;;;;6.07;1.50;;;14.10;96.00;;;;;;4956613;28;20106;-55
2022/09/16 08:58:55;;;;;;;6.07;1.17;;;14.10;96.00;;;;;;4952477;28;20038;-57
2022/09/16 09:01:21;;;;;;;5.07;1.45;;;14.00;96.00;;;;;;4953336;29;20127;-59
2022/09/16 09:03:48;;;;;;;7.18;1.90;;;14.00;95.60;;;;;;4954054;28;20192;-58
2022/09/16 09:06:15;;;;;;;5.70;2.67;;;14.10;96.00;;;;;;4952384;28;20105;-57
2022/09/16 09:08:42;;;;;;;5.00;2.03;;;14.10;95.80;;;;;;4943457;28;20039;-58
2022/09/16 09:11:09;;;;;;;6.47;1.85;;;14.10;95.60;;;;;;4950378;29;20438;-57
2022/09/16 09:13:36;;;;;;;3.65;1.40;;;14.10;95.40;;;;;;4951464;28;20059;-58
2022/09/16 09:16:03;;;;;;;5.30;2.20;;;14.10;95.40;;;;;;4953276;28;20043;-52
2022/09/16 09:18:30;;;;;;;11.98;3.13;;;14.00;95.30;;;;;;4953798;28;20047;-57
2022/09/16 09:20:57;;;;;;;9.57;3.30;;;14.10;95.60;;;;;;4952547;28;20035;-52
2022/09/16 09:23:23;;;;;;;11.38;2.25;;;14.10;95.50;;;;;;4955110;28;20402;-56
2022/09/16 09:25:50;;;;;;;10.20;2.33;;;14.10;95.20;;;;;;4969173;28;20499;-54
2022/09/16 09:28:20;;;;;;;9.15;2.65;;;14.30;95.30;;;;;;4952623;28;20130;-55
2022/09/16 09:30:46;;;;;;;7.63;2.60;;;14.40;95.10;;;;;;4953040;29;20395;-58
2022/09/16 09:33:13;;;;;;;15.77;4.53;;;14.50;95.00;;;;;;4952598;28;20051;-58
2022/09/16 09:36:01;;;;;;;6.20;2.33;;;14.50;94.60;;;;;;4936835;29;20098;-57
2022/09/16 09:38:28;;;;;;;8.75;3.65;;;14.50;94.80;;;;;;4949890;29;20049;-55
2022/09/16 09:40:56;;;;;;;4.53;1.50;;;14.50;94.70;;;;;;4952597;28;20046;-57
2022/09/16 09:43:22;;;;;;;7.40;2.40;;;14.60;94.60;;;;;;4953620;29;20071;-57
2022/09/16 09:45:49;;;;;;;8.43;2.08;;;14.60;94.40;;;;;;4954105;28;20043;-58
2022/09/16 09:48:16;;;;;;;4.43;1.90;;;14.60;94.80;;;;;;4953047;29;20374;-58
2022/09/16 09:50:43;;;;;;;4.40;1.58;;;14.70;94.10;;;;;;4955161;28;20113;-57
2022/09/16 09:53:09;;;;;;;5.15;1.60;;;14.70;94.40;;;;;;4953609;28;20067;-56
2022/09/16 09:55:36;;;;;;;4.65;1.60;;;14.70;94.30;;;;;;4952817;29;20047;-60
2022/09/16 09:58:04;;;;;;;4.95;2.13;;;14.80;94.20;;;;;;4951057;28;20047;-55
2022/09/16 10:00:30;;;;;;;6.88;2.13;;;14.80;94.10;;;;;;4953174;29;20040;-59
2022/09/16 10:02:57;;;;;;;5.30;1.75;;;14.80;94.00;;;;;;4952937;28;20114;-59
2022/09/16 10:05:24;;;;;;;4.47;1.67;;;14.80;93.80;;;;;;4953369;28;20070;-59
2022/09/16 10:07:51;;;;;;;4.25;1.25;;;14.80;93.50;;;;;;4953015;28;20118;-57
2022/09/16 10:10:17;;;;;;;6.40;1.40;;;14.90;93.50;;;;;;4950324;28;20122;-59
2022/09/16 10:12:44;;;;;;;3.53;1.08;;;14.80;93.00;;;;;;4951820;28;20450;-55
2022/09/16 10:15:11;;;;;;;2.63;1.08;;;14.70;93.00;;;;;;4951022;28;20043;-56
2022/09/16 10:17:38;;;;;;;5.03;2.00;;;14.70;93.20;;;;;;4954407;28;20047;-58
2022/09/16 10:20:06;;;;;;;4.70;1.33;;;14.60;93.30;;;;;;4963190;28;20051;-57
2022/09/16 10:22:32;;;;;;;5.68;1.30;;;14.60;93.40;;;;;;4949613;29;20102;-58
2022/09/16 10:24:59;;;;;;;3.72;1.48;;;14.80;93.40;;;;;;4953379;28;20065;-58
2022/09/16 10:27:26;;;;;;;6.15;1.30;;;14.80;92.90;;;;;;4955088;28;20071;-56
2022/09/16 10:29:53;;;;;;;3.58;1.30;;;14.70;92.90;;;;;;4954459;28;20050;-59
2022/09/16 10:32:20;;;;;;;4.05;1.30;;;14.60;93.10;;;;;;4953496;28;20558;-58
2022/09/16 10:34:47;;;;;;;3.40;1.30;;;14.60;92.80;;;;;;4952672;28;20134;-56
2022/09/16 10:37:14;;;;;;;3.47;1.10;;;14.50;92.70;;;;;;4953412;28;20099;-56
2022/09/16 10:39:40;;;;;;;3.53;0.90;;;14.60;93.10;;;;;;4955363;28;20039;-55
2022/09/16 10:42:07;;;;;;;3.35;1.23;;;14.70;92.70;;;;;;4950271;29;20090;-57
2022/09/16 10:44:34;;;;;;;5.55;1.38;;;14.90;92.90;;;;;;4955809;29;20050;-57
2022/09/16 10:47:00;;;;;;;3.83;1.20;;;14.90;92.50;;;;;;4955938;28;20118;-58
2022/09/16 10:49:27;;;;;;;2.53;1.05;;;14.90;92.70;;;;;;4956953;28;20103;-56
2022/09/16 10:51:54;;;;;;;3.28;1.20;;;15.10;92.30;;;;;;4956851;28;20070;-58
2022/09/16 10:54:21;;;;;;;2.50;0.88;;;15.20;91.70;;;;;;4957645;29;20047;-59
2022/09/16 10:56:47;;;;;;;4.35;0.90;;;15.20;91.30;;;;;;4957900;28;20126;-58
2022/09/16 10:59:14;;;;;;;4.07;1.10;;;15.30;91.10;;;;;;4956850;29;20047;-57
2022/09/16 11:01:41;;;;;;;3.67;0.88;;;15.30;90.70;;;;;;4954865;28;20063;-58
2022/09/16 11:04:11;;;;;;;5.05;1.08;;;15.50;91.00;;;;;;4955625;28;20078;-56
2022/09/16 11:06:38;;;;;;;2.33;0.90;;;15.60;91.00;;;;;;4956916;28;20545;-59
2022/09/16 11:09:05;;;;;;;3.25;0.93;;;15.80;90.50;;;;;;4954947;28;20043;-57
2022/09/16 11:11:32;;;;;;;3.08;0.73;;;15.80;89.80;;;;;;4955138;29;20107;-56
2022/09/16 11:13:58;;;;;;;2.45;0.63;;;15.60;90.10;;;;;;4957325;28;20126;-59
2022/09/16 11:16:25;;;;;;;3.67;0.70;;;15.60;90.20;;;;;;4955937;28;20451;-60
2022/09/16 11:18:53;;;;;;;4.15;0.80;;;15.50;89.90;;;;;;4956315;28;20382;-59
2022/09/16 11:21:39;;;;;;;2.10;0.40;;;15.40;89.80;;;;;;4954929;29;20118;-57
2022/09/16 11:24:11;;;;;;;3.38;1.02;;;15.40;89.70;;;;;;4952739;28;20130;-58
2022/09/16 11:26:43;;;;;;;2.13;0.60;;;15.30;88.10;;;;;;4954175;28;20070;-56
2022/09/16 11:29:16;;;;;;;;;;;15.40;89.10;;;;;;4956492;28;20079;-56
2022/09/16 11:31:43;;;;;;;1.73;0.57;;;15.60;88.00;;;;;;4945183;28;20002;-58
2022/09/16 11:34:10;;;;;;;3.45;0.65;;;15.70;87.10;;;;;;4955059;28;20047;-59
2022/09/16 11:36:37;;;;;;;3.22;0.50;;;15.70;86.90;;;;;;4956577;28;20039;-59
2022/09/16 11:39:04;;;;;;;2.78;0.55;;;15.60;86.20;;;;;;4955966;28;20098;-58
2022/09/16 11:41:31;;;;;;;2.00;0.57;;;15.50;87.80;;;;;;4950816;28;20056;-57
2022/09/16 11:43:57;;;;;;;3.50;0.63;;;15.60;88.00;;;;;;4953342;28;20051;-57
2022/09/16 11:46:24;;;;;;;1.92;0.60;;;15.70;87.30;;;;;;4957498;29;20074;-58
2022/09/16 11:48:51;;;;;;;3.33;0.50;;;15.80;88.50;;;;;;4955981;28;20054;-58
2022/09/16 11:51:18;;;;;;;1.70;0.50;;;15.80;87.70;;;;;;4956036;29;20043;-57
2022/09/16 11:53:45;;;;;;;5.22;0.88;;;15.70;87.40;;;;;;4938861;29;20054;-56
2022/09/16 11:56:13;;;;;;;2.83;0.50;;;15.70;87.40;;;;;;4954997;29;20042;-56
2022/09/16 11:58:39;;;;;;;2.67;0.57;;;15.70;86.60;;;;;;4957586;28;20506;-57
2022/09/16 12:01:06;;;;;;;2.17;0.70;;;15.80;86.60;;;;;;4956866;28;20117;-58
2022/09/16 12:03:33;;;;;;;3.25;0.60;;;15.80;86.60;;;;;;4957192;28;20410;-58
2022/09/16 12:06:03;;;;;;;2.58;0.57;;;15.90;85.80;;;;;;4957795;28;20070;-58
2022/09/16 12:08:30;;;;;;;3.28;0.60;;;15.90;84.50;;;;;;4954276;28;20031;-56
2022/09/16 12:10:57;;;;;;;0.75;0.40;;;15.90;84.70;;;;;;4954210;28;20454;-56
2022/09/16 12:13:24;;;;;;;1.58;0.40;;;16.00;84.50;;;;;;4956296;28;20146;-57
2022/09/16 12:15:50;;;;;;;1.48;0.68;;;16.10;83.40;;;;;;4954634;28;20051;-56
2022/09/16 12:18:20;;;;;;;2.45;0.70;;;16.20;82.50;;;;;;4953796;29;20047;-58
2022/09/16 12:20:47;;;;;;;1.73;0.65;;;16.20;82.80;;;;;;4955561;28;20047;-56
2022/09/16 12:23:13;;;;;;;3.45;0.55;;;16.20;82.60;;;;;;4957398;28;20054;-58
2022/09/16 12:25:40;;;;;;;1.13;0.45;;;16.30;83.20;;;;;;4957145;28;20122;-59
2022/09/16 12:28:11;;;;;;;1.33;0.50;;;16.30;83.40;;;;;;4957484;28;20044;-58
2022/09/16 12:30:38;;;;;;;3.20;0.95;;;16.30;84.50;;;;;;4957341;28;20077;-59
2022/09/16 12:33:05;;;;;;;1.77;0.50;;;16.10;83.30;;;;;;4957466;28;20054;-56
2022/09/16 12:35:32;;;;;;;4.28;0.90;;;15.90;84.00;;;;;;4957391;28;20047;-56
2022/09/16 12:37:58;;;;;;;3.95;0.68;;;15.80;84.30;;;;;;4956903;28;20039;-58
2022/09/16 12:40:25;;;;;;;5.15;0.68;;;15.70;84.30;;;;;;4956998;28;20117;-54
2022/09/16 12:42:52;;;;;;;4.60;0.50;;;15.70;83.30;;;;;;4956663;28;20047;-56
2022/09/16 12:45:19;;;;;;;3.75;0.60;;;15.80;83.30;;;;;;4956829;28;20047;-57